Latest Weather Observations for Minnipa RS

IDS60801

Issued at 6:02 pm CST Thursday 9 April 2020 (issued every 10 minutes, with the page automatically refreshed every 10 minutes)

About weather observations | Map of weather stations | Latest weather observations for SA | Other Formats
Station Details ID: 018195 Name: MINNIPA PIRSA Lat: -32.84 Lon: 135.15 Height: 165.0 m
Data from the previous 72 hours. | See also: Recent months at Minnipa RS
Date/Time
CST
Temp
°C
App
Temp
°C
Dew
Point
°C
Rel
Hum
%
Delta-T
°C
Wind Press
QNH
hPa
Press
MSL
hPa
Rain since
9am
mm
Dir  Spd
km/h
Gust
km/h
Spd
kts
Gust
kts
09/06:00pm 22.9 18.4 -0.6 21 10.6 SSE 13 17 7 9 1021.3 1020.9 0.0
09/05:30pm 23.9 19.1 0.3 21 10.9 SE 15 19 8 10 1021.2 1020.8 0.0
09/05:00pm 24.5 20.3 1.4 22 11.0 SSE 13 19 7 10 1021.1 1020.7 0.0
09/04:30pm 24.7 21.6 0.3 20 11.3 SSE 6 11 3 6 1021.2 1020.8 0.0
09/04:00pm 24.6 19.9 -2.0 17 11.8 SE 13 20 7 11 1021.3 1020.9 0.0
09/03:30pm 24.7 20.6 -0.4 19 11.5 SSW 11 17 6 9 1021.4 1021.0 0.0
09/03:00pm 24.6 21.0 0.8 21 11.1 ESE 9 13 5 7 1021.4 1021.0 0.0
09/02:30pm 23.9 20.1 1.5 23 10.6 ESE 11 17 6 9 1021.6 1021.2 0.0
09/02:00pm 24.0 21.1 2.8 25 10.3 ENE 7 11 4 6 1022.0 1021.6 0.0
09/01:30pm 23.2 20.2 2.1 25 10.0 ESE 7 13 4 7 1022.4 1022.0 0.0
09/01:00pm 23.0 20.5 4.0 29 9.4 WNW 6 9 3 5 1022.8 1022.5 0.0
09/12:30pm 22.1 19.0 3.7 30 8.9 SE 9 13 5 7 1023.3 1023.0 0.0
09/12:00pm 21.5 19.2 4.6 33 8.3 E 6 13 3 7 1024.1 1023.7 0.0
09/11:30am 21.2 18.6 5.9 37 7.7 ESE 9 17 5 9 1024.6 1024.2 0.0
09/11:00am 20.4 18.0 7.1 42 6.8 NNE 9 15 5 8 1024.9 1024.5 0.0
09/10:30am 19.5 17.2 7.6 46 6.1 ENE 9 17 5 9 1025.1 1024.7 0.0
09/10:00am 18.0 15.3 8.8 55 4.8 E 13 19 7 10 1025.2 1024.8 0.0
09/09:30am 16.7 13.4 9.6 63 3.7 E 17 20 9 11 1025.3 1024.9 0.0
09/09:00am 15.4 12.3 10.2 71 2.7 ENE 17 22 9 12 1025.2 1024.8 0.2
09/08:30am 14.1 10.6 10.3 78 2.0 ENE 19 22 10 12 1025.2 1024.8 0.2
09/08:00am 13.0 9.9 10.2 83 1.5 ENE 17 20 9 11 1025.0 1024.6 0.2
09/07:30am 11.9 8.7 9.8 87 1.1 ENE 17 20 9 11 1024.8 1024.4 0.2
09/07:00am 11.1 8.1 9.2 88 1.0 E 15 19 8 10 1024.8 1024.4 0.2
09/06:30am 11.5 8.2 9.4 87 1.1 E 17 19 9 10 1024.8 1024.4 0.2
09/06:00am 11.6 7.9 9.3 86 1.2 E 19 20 10 11 1024.6 1024.2 0.2
09/05:30am 11.6 8.2 9.2 85 1.2 E 17 20 9 11 1024.6 1024.2 0.2
09/05:00am 11.5 8.1 9.1 85 1.2 ESE 17 20 9 11 1024.4 1024.0 0.2
09/04:30am 11.1 8.0 8.8 86 1.1 ESE 15 17 8 9 1024.3 1023.9 0.2
09/04:00am 10.8 8.0 8.6 86 1.1 ESE 13 17 7 9 1024.2 1023.8 0.2
09/03:30am 10.6 7.8 8.4 86 1.1 SE 13 15 7 8 1024.2 1023.8 0.2
09/03:00am 10.8 7.6 8.4 85 1.2 ESE 15 17 8 9 1024.3 1023.9 0.2
09/02:30am 11.1 8.3 8.7 85 1.2 SE 13 15 7 8 1024.4 1024.0 0.2
09/02:00am 11.2 8.7 8.4 83 1.4 SE 11 13 6 7 1024.7 1024.3 0.2
09/01:30am 11.8 9.0 8.6 81 1.6 SE 13 15 7 8 1024.6 1024.2 0.2
09/01:00am 12.2 9.5 8.9 80 1.7 ESE 13 17 7 9 1024.4 1024.0 0.2
09/12:30am 12.7 9.3 9.0 78 1.9 ESE 17 20 9 11 1024.3 1023.9 0.2
09/12:00am 13.0 9.6 9.1 77 2.0 ESE 17 20 9 11 1024.2 1023.8 0.2
 
Date/Time
CST
Temp
°C
App
Temp
°C
Dew
Point
°C
Rel
Hum
%
Delta-T
°C
Wind Press
QNH
hPa
Press
MSL
hPa
Rain since
9am
mm
Dir  Spd
km/h
Gust
km/h
Spd
kts
Gust
kts
08/11:30pm 13.3 9.3 9.2 76 2.1 SE 20 24 11 13 1024.3 1023.9 0.2
08/11:00pm 13.8 9.9 9.3 74 2.3 ESE 20 26 11 14 1024.5 1024.1 0.2
08/10:30pm 14.1 10.2 9.3 73 2.5 SE 20 26 11 14 1024.6 1024.2 0.2
08/10:00pm 14.5 9.8 9.3 71 2.7 SE 24 32 13 17 1024.6 1024.2 0.2
08/09:30pm 14.9 10.2 9.1 68 3.0 SE 24 30 13 16 1024.6 1024.2 0.2
08/09:00pm 15.6 10.5 9.1 65 3.3 SE 26 35 14 19 1024.4 1024.0 0.2
08/08:30pm 16.2 11.0 8.9 62 3.8 SE 26 35 14 19 1024.2 1023.8 0.2
08/08:00pm 17.2 12.3 8.6 57 4.5 SE 24 30 13 16 1023.7 1023.3 0.2
08/07:30pm 18.4 14.2 8.1 51 5.3 SE 20 28 11 15 1023.1 1022.8 0.2
08/07:00pm 19.1 16.7 6.9 45 6.2 SE 9 20 5 11 1022.5 1022.2 0.2
08/06:30pm 19.7 17.0 5.7 40 6.9 SE 9 11 5 6 1022.2 1021.8 0.2
08/06:00pm 21.0 17.9 5.4 36 7.8 SE 11 17 6 9 1022.0 1021.6 0.2
08/05:30pm 21.8 18.3 5.3 34 8.2 SE 13 20 7 11 1021.8 1021.4 0.2
08/05:00pm 21.8 17.8 4.8 33 8.4 SE 15 24 8 13 1021.8 1021.4 0.2
08/04:30pm 21.7 18.0 4.7 33 8.4 SSE 13 26 7 14 1022.0 1021.6 0.2
08/04:00pm 21.3 18.2 7.2 40 7.3 SSE 13 20 7 11 1022.0 1021.6 0.2
08/03:30pm 21.5 17.4 7.7 41 7.2 S 19 28 10 15 1021.9 1021.5 0.2
08/03:00pm 21.0 17.3 8.0 43 6.8 S 17 26 9 14 1022.0 1021.6 0.2
08/02:30pm 20.9 17.6 7.9 43 6.8 SSE 15 24 8 13 1022.2 1021.8 0.2
08/02:00pm 21.3 18.3 7.9 42 7.0 SE 13 22 7 12 1022.4 1022.0 0.2
08/01:30pm 20.8 17.1 8.1 44 6.6 ESE 17 33 9 18 1022.7 1022.4 0.0
08/01:00pm 20.7 17.2 8.7 46 6.4 SSE 17 24 9 13 1023.0 1022.7 0.0
08/12:30pm 19.5 15.6 8.5 49 5.7 SSE 19 24 10 13 1023.7 1023.3 0.0
08/12:00pm 19.6 15.6 8.3 48 5.9 SSE 19 26 10 14 1024.1 1023.7 0.0
08/11:30am 19.5 16.1 7.6 46 6.1 SE 15 22 8 12 1024.2 1023.8 0.0
08/11:00am 19.3 15.9 9.2 52 5.4 SE 17 24 9 13 1024.5 1024.1 0.0
08/10:30am 18.7 15.1 9.8 56 4.7 SE 19 28 10 15 1024.7 1024.3 0.0
08/10:00am 17.4 13.6 9.8 61 4.0 SE 20 30 11 16 1024.8 1024.4 0.0
08/09:30am 16.2 11.7 10.1 67 3.2 SE 24 30 13 16 1024.9 1024.5 0.0
08/09:00am 15.5 11.6 10.7 73 2.6 SE 22 30 12 16 1024.8 1024.4 0.0
08/08:30am 14.4 10.9 11.0 80 1.8 SE 20 26 11 14 1024.5 1024.1 0.0
08/08:00am 12.1 9.4 10.3 89 0.9 SE 15 19 8 10 1024.1 1023.7 0.0
08/07:30am 11.4 8.9 9.8 90 0.8 SE 13 17 7 9 1023.8 1023.4 0.0
08/07:00am 11.3 8.0 9.6 89 0.9 SE 17 17 9 9 1023.3 1023.0 0.0
08/06:30am 12.1 9.4 10.2 88 1.0 SE 15 19 8 10 1023.2 1022.9 0.0
08/06:00am 12.1 9.0 10.2 88 1.0 ESE 17 19 9 10 1022.9 1022.6 0.0
08/05:30am 12.1 9.4 10.2 88 1.0 ESE 15 19 8 10 1022.7 1022.4 0.0
08/05:00am 12.1 9.4 10.3 89 0.9 ESE 15 17 8 9 1022.5 1022.2 0.0
08/04:30am 12.0 9.6 10.2 89 0.9 ESE 13 17 7 9 1022.2 1021.8 0.0
08/04:00am 11.8 9.4 10.0 89 0.9 SE 13 17 7 9 1022.0 1021.6 0.0
08/03:30am 11.9 9.1 10.0 88 1.0 SE 15 19 8 10 1021.9 1021.5 0.0
08/03:00am 12.1 9.3 10.0 87 1.1 SE 15 20 8 11 1022.0 1021.6 0.0
08/02:30am 12.4 10.0 10.1 86 1.2 SE 13 17 7 9 1022.2 1021.8 0.0
08/02:00am 12.4 10.0 10.0 85 1.2 SE 13 17 7 9 1022.3 1021.9 0.0
08/01:30am 12.9 10.2 10.3 84 1.4 SE 15 19 8 10 1022.5 1022.2 0.0
08/01:00am 13.3 10.6 10.5 83 1.5 SE 15 19 8 10 1022.5 1022.2 0.0
08/12:30am 13.6 11.0 10.6 82 1.6 SE 15 19 8 10 1022.5 1022.2 0.0
08/12:00am 13.9 10.9 10.5 80 1.8 SE 17 20 9 11 1022.6 1022.3 0.0
 
Date/Time
CST
Temp
°C
App
Temp
°C
Dew
Point
°C
Rel
Hum
%
Delta-T
°C
Wind Press
QNH
hPa
Press
MSL
hPa
Rain since
9am
mm
Dir  Spd
km/h
Gust
km/h
Spd
kts
Gust
kts
07/11:30pm 14.2 11.2 10.6 79 1.9 SE 17 24 9 13 1022.7 1022.4 0.0
07/11:00pm 14.6 11.2 10.4 76 2.2 SE 19 24 10 13 1023.1 1022.8 0.0
07/10:30pm 15.0 11.4 10.4 74 2.4 SE 20 28 11 15 1023.3 1023.0 0.0
07/10:00pm 15.3 11.5 9.9 70 2.8 SE 20 28 11 15 1023.2 1022.9 0.0
07/09:30pm 15.3 12.6 10.3 72 2.6 SE 15 20 8 11 1023.1 1022.8 0.0
07/09:00pm 15.5 12.7 10.1 70 2.8 SSE 15 20 8 11 1022.9 1022.6 0.0
07/08:30pm 15.8 13.2 10.6 71 2.8 S 15 20 8 11 1022.8 1022.5 0.0
07/08:00pm 16.1 13.1 10.6 70 2.9 S 17 20 9 11 1022.5 1022.2 0.0
07/07:30pm 16.6 13.2 10.7 68 3.2 S 19 24 10 13 1022.3 1021.9 0.0
07/07:00pm 17.2 13.7 10.8 66 3.5 SSW 20 28 11 15 1021.9 1021.5 0.0
07/06:30pm 17.7 13.7 10.6 63 3.8 SSW 22 28 12 15 1021.4 1021.0 0.0
07/06:00pm 20.2 17.3 8.2 46 6.3 S 13 19 7 10 1021.1 1020.7 0.0
07/05:30pm 20.6 17.4 8.3 45 6.4 SSE 15 20 8 11 1020.9 1020.5 0.0
07/05:00pm 21.4 18.6 8.7 44 6.8 S 13 19 7 10 1020.7 1020.3 0.0
07/04:30pm 20.9 17.7 8.5 45 6.5 S 15 19 8 10 1020.9 1020.5 0.0
07/04:00pm 21.2 18.6 7.8 42 7.0 S 11 17 6 9 1020.9 1020.5 0.0
07/03:30pm 21.2 18.3 8.1 43 6.9 SSE 13 20 7 11 1020.8 1020.4 0.0
07/03:00pm 21.3 18.3 7.9 42 7.0 S 13 24 7 13 1020.9 1020.5 0.0
07/02:30pm 21.3 18.9 10.2 49 6.0 SSE 13 19 7 10 1021.2 1020.8 0.0
07/02:00pm 20.8 18.3 9.7 49 6.0 S 13 19 7 10 1021.6 1021.2 0.0
07/01:30pm 20.6 18.6 10.1 51 5.7 SE 11 19 6 10 1022.0 1021.6 0.0
07/01:00pm 19.7 17.5 10.7 56 4.9 SSE 13 20 7 11 1022.6 1022.3 0.0
07/12:30pm 19.1 16.9 10.9 59 4.5 SSE 13 19 7 10 1023.1 1022.8 0.0
07/12:00pm 19.1 16.7 11.4 61 4.2 ESE 15 20 8 11 1023.3 1023.0 0.0
07/11:30am 19.2 16.8 11.5 61 4.2 SE 15 22 8 12 1023.8 1023.4 0.0
07/11:00am 18.4 15.8 11.9 66 3.6 SE 17 22 9 12 1024.1 1023.7 0.0
07/10:30am 17.2 14.4 12.5 74 2.6 SE 19 22 10 12 1024.2 1023.8 0.0
07/10:00am 15.0 12.4 13.2 89 1.0 SE 19 24 10 13 1024.5 1024.1 0.0
07/09:30am 13.8 11.0 12.7 93 0.6 SE 19 24 10 13 1024.6 1024.2 0.0
07/09:00am 13.6 11.5 12.5 93 0.6 SE 15 20 8 11 1024.7 1024.3 0.0
07/08:30am 12.9 11.0 11.8 93 0.6 SE 13 17 7 9 1024.4 1024.0 0.0
07/08:00am 12.5 10.9 11.4 93 0.6 SE 11 15 6 8 1024.1 1023.7 0.0
07/07:30am 12.2 10.0 10.9 92 0.7 SE 13 17 7 9 1023.6 1023.2 0.0
07/07:00am 12.1 10.3 10.8 92 0.7 SE 11 13 6 7 1023.2 1022.9 0.0
07/06:30am 11.8 10.3 10.5 92 0.7 SE 9 11 5 6 1023.0 1022.7 0.0
07/06:00am 11.8 9.9 10.5 92 0.7 ESE 11 13 6 7 1022.9 1022.6 0.0
07/05:30am 11.4 9.8 10.1 92 0.7 ESE 9 11 5 6 1022.7 1022.4 0.0
07/05:00am 11.6 10.0 10.2 91 0.7 SE 9 11 5 6 1022.6 1022.3 0.0
07/04:30am 11.8 9.4 10.2 90 0.8 SE 13 15 7 8 1022.4 1022.0 0.0
07/04:00am 12.7 10.2 11.1 90 0.8 ESE 15 17 8 9 1022.1 1021.7 0.0
07/03:30am 13.0 11.0 11.4 90 0.9 ESE 13 17 7 9 1022.0 1021.6 0.0
07/03:00am 12.3 10.1 10.9 91 0.7 ESE 13 15 7 8 1022.1 1021.7 0.0
07/02:30am 12.2 10.3 10.6 90 0.8 SE 11 13 6 7 1022.4 1022.0 0.0
07/02:00am 12.4 10.6 10.8 90 0.8 SE 11 13 6 7 1022.5 1022.2 0.0
07/01:30am 12.7 11.0 11.1 90 0.8 SSE 11 15 6 8 1022.7 1022.4 0.0
07/01:00am 12.5 11.0 10.7 89 0.9 SSE 9 11 5 6 1023.0 1022.7 0.0
07/12:30am 12.6 11.1 10.7 88 1.0 SSE 9 9 5 5 1022.9 1022.6 0.0
07/12:00am 13.2 11.5 11.1 87 1.1 SE 11 13 6 7 1023.0 1022.7 0.0
 
Date/Time
CST
Temp
°C
App
Temp
°C
Dew
Point
°C
Rel
Hum
%
Delta-T
°C
Wind Press
QNH
hPa
Press
MSL
hPa
Rain since
9am
mm
Dir  Spd
km/h
Gust
km/h
Spd
kts
Gust
kts
06/11:30pm 13.5 11.7 11.0 85 1.3 SSE 11 17 6 9 1023.3 1023.0 0.0
06/11:00pm 13.8 11.3 11.0 83 1.5 SSE 15 19 8 10 1023.0 1022.7 0.0
06/10:30pm 14.2 11.3 11.0 81 1.7 SSE 17 20 9 11 1023.0 1022.7 0.0
06/10:00pm 14.4 11.4 10.6 78 2.0 SSE 17 22 9 12 1023.1 1022.8 0.0
06/09:30pm 14.7 11.7 10.5 76 2.2 S 17 22 9 12 1023.2 1022.9 0.0
06/09:00pm 15.5 12.5 10.5 72 2.6 SSE 17 20 9 11 1023.1 1022.8 0.0
06/08:30pm 16.1 13.0 10.4 69 3.0 SSE 17 20 9 11 1023.0 1022.7 0.0
06/08:00pm 16.4 13.4 10.5 68 3.2 S 17 22 9 12 1023.0 1022.7 0.0
06/07:30pm 16.7 14.5 10.8 68 3.2 S 13 17 7 9 1022.9 1022.6 0.0
06/07:00pm 17.0 14.4 10.6 66 3.4 S 15 17 8 9 1022.7 1022.4 0.0
06/06:30pm 17.5 14.1 10.6 64 3.7 S 19 24 10 13 1022.2 1021.8 0.0

Other formats

Comma delimited format used in spreadsheet applications
http://www.bom.gov.au/fwo/IDS60801/IDS60801.95662.axf

JavaScript Object Notation format (JSON) in row-major order
http://www.bom.gov.au/fwo/IDS60801/IDS60801.95662.json

Data quality

Most of these data are generated automatically and are frequently updated. Quality checks on data are not normally performed. It is possible for incorrect values to appear. Refer to information at About Latest Weather Observations and please check the disclaimer before using these data.